Time;durP1;ratioP1;P1;durP2;ratioP2;P2;SDS_P1;SDS_P2;PMS_P1;PMS_P2;Temp;Humidity;BMP_temperature;BMP_pressure;BME280_temperature;BME280_humidity;BME280_pressure;Samples;Min_cycle;Max_cycle;Signal;HPM_P1;HPM_P2
2021/11/12 00:02:47;;;;;;;;;;;16.40;99.90;;;;;;5073523;28;19934;-70
2021/11/12 00:13:29;;;;;;;;;;;16.80;99.90;;;;;;5073449;28;19915;-73
2021/11/12 00:16:00;;;;;;;;;;;16.90;99.90;;;;;;5072710;28;19964;-76
2021/11/12 00:18:28;;;;;;;;;;;17.00;99.90;;;;;;5073008;28;19999;-76
2021/11/12 00:20:56;;;;;;;;;;;17.00;99.90;;;;;;5073024;28;20386;-76
2021/11/12 00:23:23;;;;;;;;;;;17.20;99.90;;;;;;5072846;28;19909;-75
2021/11/12 00:25:50;;;;;;;;;;;17.30;99.90;;;;;;5072677;28;19916;-75
2021/11/12 00:28:22;;;;;;;;;;;17.40;99.90;;;;;;5072939;28;19912;-76
2021/11/12 00:31:15;;;;;;;;;;;17.40;99.90;;;;;;5072852;28;19908;-76
2021/11/12 00:36:37;;;;;;;;;;;17.80;99.90;;;;;;5073254;28;20385;-76
2021/11/12 00:41:40;;;;;;;;;;;17.90;99.90;;;;;;5072766;28;19912;-75
2021/11/12 00:44:35;;;;;;;;;;;18.00;99.90;;;;;;5072596;28;20007;-75
2021/11/12 00:47:19;;;;;;;;;;;17.80;99.90;;;;;;5072457;28;20381;-76
2021/11/12 00:49:58;;;;;;;;;;;18.00;99.90;;;;;;5072469;28;20030;-71
2021/11/12 00:52:42;;;;;;;;;;;18.20;99.90;;;;;;5072443;28;19999;-76
2021/11/12 00:55:09;;;;;;;;;;;18.50;99.90;;;;;;5072407;28;20291;-76
2021/11/12 00:57:36;;;;;;;;;;;18.50;99.90;;;;;;5072555;28;20377;-76
2021/11/12 01:00:04;;;;;;;;;;;18.50;99.90;;;;;;5072246;28;19920;-76
2021/11/12 01:02:32;;;;;;;;;;;18.40;99.90;;;;;;5072444;28;19999;-74
2021/11/12 01:05:03;;;;;;;;;;;18.30;99.90;;;;;;5070296;28;20194;-75
2021/11/12 01:07:30;;;;;;;;;;;18.20;99.90;;;;;;5072242;28;19995;-75
2021/11/12 01:09:57;;;;;;;;;;;18.20;99.90;;;;;;5072258;28;20313;-76
2021/11/12 01:12:25;;;;;;;;;;;18.30;99.90;;;;;;5072339;28;19955;-75
2021/11/12 01:14:52;;;;;;;;;;;18.60;99.90;;;;;;5072308;28;19978;-75
2021/11/12 01:17:18;;;;;;;;;;;18.80;99.90;;;;;;5072325;28;19909;-75
2021/11/12 01:19:45;;;;;;;;;;;18.90;99.90;;;;;;5072485;28;19908;-76
2021/11/12 01:22:12;;;;;;;;;;;18.80;99.90;;;;;;5072367;28;19954;-75
2021/11/12 01:24:39;;;;;;;;;;;18.70;99.90;;;;;;5072299;28;19917;-70
2021/11/12 01:27:06;;;;;;;;;;;18.60;99.90;;;;;;5072201;28;19915;-74
2021/11/12 01:29:33;;;;;;;;;;;18.60;99.90;;;;;;5071780;28;19912;-76
2021/11/12 01:34:45;;;;;;;;;;;18.60;99.90;;;;;;5072817;28;19932;-70
2021/11/12 01:37:14;;;;;;;;;;;18.60;99.90;;;;;;5072236;28;19909;-73
2021/11/12 01:39:40;;;;;;;;;;;18.40;99.90;;;;;;5072132;28;19912;-69
2021/11/12 01:42:08;;;;;;;;;;;18.50;99.90;;;;;;5071901;28;19908;-72
2021/11/12 01:44:45;;;;;;;;;;;18.60;99.90;;;;;;5072043;28;19917;-70
2021/11/12 01:47:21;;;;;;;;;;;18.70;99.90;;;;;;5072106;28;19909;-74
2021/11/12 01:49:53;;;;;;;;;;;18.90;99.90;;;;;;5071909;28;19940;-73
2021/11/12 01:52:34;;;;;;;;;;;19.00;99.90;;;;;;5070735;28;20032;-75
2021/11/12 01:55:09;;;;;;;;;;;19.20;99.90;;;;;;5072066;28;20368;-74
2021/11/12 02:00:16;;;;;;;;;;;19.10;99.90;;;;;;5071814;28;19912;-75
2021/11/12 02:02:43;;;;;;;;;;;19.00;99.90;;;;;;5071853;28;20035;-76
2021/11/12 02:05:10;;;;;;;;;;;19.00;99.90;;;;;;5071786;28;19921;-74
2021/11/12 02:07:37;;;;;;;;;;;19.00;99.90;;;;;;5073740;28;20362;-74
2021/11/12 02:10:05;;;;;;;;;;;19.00;99.90;;;;;;5075233;28;19916;-77
2021/11/12 02:12:41;;;;;;;;;;;18.90;99.90;;;;;;5075643;28;19908;-75
2021/11/12 02:15:08;;;;;;;;;;;18.80;99.90;;;;;;5075544;28;19909;-75
2021/11/12 02:17:37;;;;;;;;;;;18.90;99.90;;;;;;5075307;28;19970;-76
2021/11/12 02:20:20;;;;;;;;;;;19.00;99.90;;;;;;5075268;28;19908;-75
2021/11/12 02:22:52;;;;;;;;;;;19.20;99.90;;;;;;5075250;28;20274;-75
2021/11/12 02:25:28;;;;;;;;;;;19.50;99.90;;;;;;5075345;28;19916;-76
2021/11/12 02:28:01;;;;;;;;;;;19.70;99.90;;;;;;5075648;28;19909;-76
2021/11/12 02:30:36;;;;;;;;;;;19.70;99.90;;;;;;5075249;28;19955;-71
2021/11/12 02:33:03;;;;;;;;;;;19.80;99.90;;;;;;5075096;28;19908;-73
2021/11/12 02:35:31;;;;;;;;;;;19.80;99.90;;;;;;5073980;28;19908;-76
2021/11/12 02:37:58;;;;;;;;;;;19.80;99.90;;;;;;5090889;28;19947;-77
2021/11/12 02:40:25;;;;;;;;;;;19.70;99.90;;;;;;5075155;28;19908;-76
2021/11/12 02:42:58;;;;;;;;;;;19.50;99.90;;;;;;5075391;28;19908;-77
2021/11/12 02:45:29;;;;;;;;;;;19.40;99.90;;;;;;5075263;28;19926;-76
2021/11/12 02:47:56;;;;;;;;;;;19.40;99.90;;;;;;5075007;28;19908;-70
2021/11/12 02:50:23;;;;;;;;;;;19.50;99.90;;;;;;5074768;28;20219;-74
2021/11/12 02:53:02;;;;;;;;;;;19.50;99.90;;;;;;5074739;28;19935;-75
2021/11/12 02:55:30;;;;;;;;;;;19.40;99.90;;;;;;5075014;28;19908;-76
2021/11/12 02:57:57;;;;;;;;;;;19.30;99.90;;;;;;5074471;28;19921;-76
2021/11/12 03:00:25;;;;;;;;;;;19.40;99.90;;;;;;5074759;28;19916;-74
2021/11/12 03:02:53;;;;;;;;;;;19.60;99.90;;;;;;5074776;28;20278;-76
2021/11/12 03:05:20;;;;;;;;;;;19.60;99.90;;;;;;5074629;28;19916;-75
2021/11/12 03:07:46;;;;;;;;;;;19.60;99.90;;;;;;5074411;28;19912;-72
2021/11/12 03:10:14;;;;;;;;;;;19.80;99.90;;;;;;5074439;28;19915;-75
2021/11/12 03:12:41;;;;;;;;;;;19.80;99.90;;;;;;5074366;28;19912;-74
2021/11/12 03:15:08;;;;;;;;;;;19.70;99.90;;;;;;5074192;28;19970;-76
2021/11/12 03:17:35;;;;;;;;;;;19.50;99.90;;;;;;5074168;28;19909;-76
2021/11/12 03:20:03;;;;;;;;;;;19.40;99.90;;;;;;5074146;28;19912;-75
2021/11/12 03:22:35;;;;;;;;;;;19.50;99.90;;;;;;5074271;28;19908;-76
2021/11/12 03:25:08;;;;;;;;;;;19.60;99.90;;;;;;5074235;28;19923;-75
2021/11/12 04:18:10;;;;;;;;;;;19.80;99.90;;;;;;5073135;28;20406;-76
2021/11/12 04:20:56;;;;;;;;;;;19.70;99.90;;;;;;5088754;28;19915;-77
2021/11/12 05:11:04;;;;;;;;;;;18.90;99.90;;;;;;5072771;28;20408;-76
2021/11/12 05:56:40;;;;;;;;;;;19.10;99.90;;;;;;5073537;28;19930;-69
2021/11/12 05:59:07;;;;;;;;;;;19.00;99.90;;;;;;5073509;28;19908;-70
2021/11/12 06:01:34;;;;;;;;;;;19.00;99.90;;;;;;5073584;28;20400;-74
2021/11/12 06:04:02;;;;;;;;;;;19.10;99.90;;;;;;5072702;28;19928;-71
2021/11/12 06:06:29;;;;;;;;;;;19.20;99.90;;;;;;5073288;28;20563;-71
2021/11/12 06:08:56;;;;;;;;;;;19.20;99.90;;;;;;5073270;28;19951;-67
2021/11/12 06:11:23;;;;;;;;;;;19.20;99.90;;;;;;5073380;28;19931;-70
2021/11/12 06:13:53;;;;;;;;;;;19.20;99.90;;;;;;5073095;28;19919;-69
2021/11/12 06:16:19;;;;;;;;;;;19.20;99.90;;;;;;5072960;28;19954;-69
2021/11/12 06:18:47;;;;;;;;;;;19.20;99.90;;;;;;5073192;28;20511;-70
2021/11/12 06:21:13;;;;;;;;;;;19.20;99.90;;;;;;5072992;28;19913;-67
2021/11/12 06:23:41;;;;;;;;;;;19.10;99.90;;;;;;5072667;28;20488;-74
2021/11/12 06:26:08;;;;;;;;;;;19.10;99.90;;;;;;5072958;28;19908;-72
2021/11/12 06:28:35;;;;;;;;;;;19.00;99.90;;;;;;5072663;28;19912;-73
2021/11/12 06:31:01;;;;;;;;;;;19.00;99.90;;;;;;5072742;28;19913;-70
2021/11/12 06:33:29;;;;;;;;;;;19.00;99.90;;;;;;5072837;28;19916;-71
2021/11/12 06:35:59;;;;;;;;;;;19.10;99.90;;;;;;5072122;28;19913;-73
2021/11/12 06:38:28;;;;;;;;;;;19.20;99.90;;;;;;5072935;28;19994;-71
2021/11/12 06:40:55;;;;;;;;;;;19.10;99.90;;;;;;5072867;28;19915;-71
2021/11/12 06:43:42;;;;;;;;;;;19.10;99.90;;;;;;5072262;28;20341;-69
2021/11/12 06:51:39;;;;;;;;;;;19.10;99.90;;;;;;5072776;28;19977;-73
2021/11/12 06:54:06;;;;;;;;;;;19.10;99.90;;;;;;5071909;28;20016;-71
2021/11/12 06:56:33;;;;;;;;;;;19.10;99.90;;;;;;5072146;28;19929;-70
2021/11/12 06:58:59;;;;;;;;;;;19.10;99.90;;;;;;5071927;28;19970;-77
2021/11/12 07:01:27;;;;;;;;;;;19.10;99.90;;;;;;5071922;28;19973;-68
2021/11/12 07:03:54;;;;;;;;;;;19.10;99.90;;;;;;5070372;28;20415;-71
2021/11/12 07:06:21;;;;;;;;;;;19.10;99.90;;;;;;5072033;28;19920;-70
2021/11/12 07:08:48;;;;;;;;;;;19.00;99.90;;;;;;5072112;28;19913;-75
2021/11/12 07:11:15;;;;;;;;;;;19.00;99.90;;;;;;5072354;28;19916;-74
2021/11/12 07:13:41;;;;;;;;;;;19.00;99.90;;;;;;5072119;28;19912;-70
2021/11/12 07:16:08;;;;;;;;;;;19.00;99.90;;;;;;5071627;28;19978;-68
2021/11/12 07:18:35;;;;;;;;;;;18.90;99.90;;;;;;5072352;28;19912;-73
2021/11/12 07:21:02;;;;;;;;;;;18.80;99.90;;;;;;5072039;28;19935;-75
2021/11/12 07:23:28;;;;;;;;;;;18.70;99.90;;;;;;5071754;28;20011;-73
2021/11/12 07:25:55;;;;;;;;;;;18.70;99.90;;;;;;5071732;28;19909;-69
2021/11/12 07:28:26;;;;;;;;;;;18.70;99.90;;;;;;5082074;28;20281;-74
2021/11/12 07:30:54;;;;;;;;;;;18.60;99.90;;;;;;5092336;28;19908;-77
2021/11/12 07:33:21;;;;;;;;;;;18.60;99.90;;;;;;5092312;28;19963;-73
2021/11/12 07:36:13;;;;;;;;;;;18.50;99.90;;;;;;5091486;28;19908;-73
2021/11/12 07:38:50;;;;;;;;;;;18.50;99.90;;;;;;5092126;28;20428;-67
2021/11/12 07:41:29;;;;;;;;;;;18.50;99.90;;;;;;5091715;28;19915;-67
2021/11/12 07:46:44;;;;;;;;;;;18.50;99.90;;;;;;5091890;28;19920;-77
2021/11/12 07:49:11;;;;;;;;;;;18.40;99.90;;;;;;5091998;28;19908;-71
2021/11/12 07:51:40;;;;;;;;;;;18.40;99.90;;;;;;5091904;28;20259;-67
2021/11/12 07:54:07;;;;;;;;;;;18.40;99.90;;;;;;5091377;28;20358;-76
2021/11/12 07:56:34;;;;;;;;;;;18.30;99.90;;;;;;5091452;28;19974;-74
2021/11/12 07:59:01;;;;;;;;;;;18.30;99.90;;;;;;5091434;28;19916;-68
2021/11/12 08:01:28;;;;;;;;;;;18.20;99.90;;;;;;5091390;28;20688;-66
2021/11/12 08:03:57;;;;;;;;;;;18.20;99.90;;;;;;5090941;28;19989;-67
2021/11/12 08:06:26;;;;;;;;;;;18.10;99.90;;;;;;5092740;28;19908;-71
2021/11/12 08:09:09;;;;;;;;;;;18.10;99.90;;;;;;5093628;28;19912;-73
2021/11/12 08:19:11;;;;;;;;;;;17.90;99.90;;;;;;5093356;28;19908;-70
2021/11/12 08:21:47;;;;;;;;;;;17.90;99.90;;;;;;5093353;28;19908;-68
2021/11/12 08:24:20;;;;;;;;;;;17.80;99.90;;;;;;5093227;28;20289;-69
2021/11/12 08:29:36;;;;;;;;;;;17.70;99.90;;;;;;5093156;28;19953;-73
2021/11/12 08:37:17;;;;;;;;;;;17.70;99.90;;;;;;5093106;28;19915;-71
2021/11/12 08:42:16;;;;;;;;;;;17.70;99.90;;;;;;5092993;28;19909;-68
2021/11/12 08:47:14;;;;;;;;;;;17.70;99.90;;;;;;5092942;28;19931;-68
2021/11/12 08:49:42;;;;;;;;;;;17.70;99.90;;;;;;5092790;28;20381;-67
2021/11/12 08:52:11;;;;;;;;;;;17.70;99.90;;;;;;5092525;28;20251;-70
2021/11/12 08:54:43;;;;;;;;;;;17.60;99.90;;;;;;5092869;28;19908;-74
2021/11/12 08:57:15;;;;;;;;;;;17.60;99.90;;;;;;5092824;28;19921;-70
2021/11/12 08:59:43;;;;;;;;;;;17.70;99.90;;;;;;5092695;28;19908;-69
2021/11/12 09:02:13;;;;;;;;;;;17.70;99.90;;;;;;5092486;28;19999;-75
2021/11/12 09:04:40;;;;;;;;;;;17.60;99.90;;;;;;5092627;28;20017;-74
2021/11/12 09:07:08;;;;;;;;;;;17.60;99.90;;;;;;5092637;28;20357;-73
2021/11/12 09:09:36;;;;;;;;;;;17.60;99.90;;;;;;5092878;28;19909;-75
2021/11/12 09:12:04;;;;;;;;;;;17.60;99.90;;;;;;5092503;28;19948;-77
2021/11/12 09:14:38;;;;;;;;;;;17.60;99.90;;;;;;5092681;28;20362;-77
2021/11/12 09:17:05;;;;;;;;;;;17.50;99.90;;;;;;5092649;28;20274;-77
2021/11/12 09:19:33;;;;;;;;;;;17.50;99.90;;;;;;5092378;28;19912;-77
2021/11/12 09:22:00;;;;;;;;;;;17.50;99.90;;;;;;5091169;28;20655;-74
2021/11/12 09:24:39;;;;;;;;;;;17.40;99.90;;;;;;5092487;28;19916;-76
2021/11/12 09:27:06;;;;;;;;;;;17.40;99.90;;;;;;5092602;28;19991;-77
2021/11/12 09:29:51;;;;;;;;;;;17.30;99.90;;;;;;5092296;28;19918;-76
2021/11/12 09:32:18;;;;;;;;;;;17.40;99.90;;;;;;5090385;28;19908;-72
2021/11/12 09:34:45;;;;;;;;;;;17.40;99.90;;;;;;5090194;28;19908;-79
2021/11/12 09:37:24;;;;;;;;;;;17.40;99.90;;;;;;5090685;28;19998;-78
2021/11/12 09:39:55;;;;;;;;;;;17.30;99.90;;;;;;5090135;28;20396;-72
2021/11/12 09:42:22;;;;;;;;;;;17.30;99.90;;;;;;5090098;28;20036;-66
2021/11/12 09:44:50;;;;;;;;;;;17.30;99.90;;;;;;5090130;28;19920;-75
2021/11/12 09:47:23;;;;;;;;;;;17.40;99.90;;;;;;5090430;28;19955;-76
2021/11/12 09:49:51;;;;;;;;;;;17.40;99.90;;;;;;5090143;28;20273;-72
2021/11/12 09:52:18;;;;;;;;;;;17.40;99.90;;;;;;5090285;28;19916;-77
2021/11/12 09:54:45;;;;;;;;;;;17.50;99.90;;;;;;5090507;28;20011;-72
2021/11/12 09:57:12;;;;;;;;;;;17.50;99.90;;;;;;5089957;28;19920;-71
2021/11/12 09:59:40;;;;;;;;;;;17.60;99.90;;;;;;5088798;28;19951;-78
2021/11/12 10:02:07;;;;;;;;;;;17.70;99.90;;;;;;5089996;28;19912;-68
2021/11/12 10:04:35;;;;;;;;;;;17.70;99.90;;;;;;5090063;28;20258;-71
2021/11/12 10:07:08;;;;;;;;;;;17.80;99.90;;;;;;5090381;28;19944;-69
2021/11/12 10:09:34;;;;;;;;;;;17.80;99.90;;;;;;5089851;28;19908;-76
2021/11/12 10:12:18;;;;;;;;;;;17.80;99.90;;;;;;5090080;28;20277;-74
2021/11/12 10:15:03;;;;;;;;;;;17.80;99.90;;;;;;5090358;28;19977;-78
2021/11/12 10:17:30;;;;;;;;;;;17.80;99.90;;;;;;5090003;28;20278;-78
2021/11/12 10:19:59;;;;;;;;;;;17.70;99.90;;;;;;5089719;28;19912;-77
2021/11/12 10:22:30;;;;;;;;;;;17.80;99.90;;;;;;5089719;28;19908;-71
2021/11/12 10:24:57;;;;;;;;;;;17.70;99.90;;;;;;5089970;28;19916;-74
2021/11/12 10:27:32;;;;;;;;;;;17.70;99.90;;;;;;5090257;28;19915;-67
2021/11/12 10:30:04;;;;;;;;;;;17.80;99.90;;;;;;5093354;28;20002;-78
2021/11/12 10:32:33;;;;;;;;;;;17.80;99.90;;;;;;5093641;28;19923;-69
2021/11/12 10:35:03;;;;;;;;;;;17.80;99.90;;;;;;5092079;28;20302;-76
2021/11/12 10:37:33;;;;;;;;;;;17.80;99.90;;;;;;5092926;28;19915;-73
2021/11/12 10:40:08;;;;;;;;;;;17.70;99.90;;;;;;5100222;22;20002;-75
2021/11/12 10:42:36;;;;;;;;;;;17.70;99.90;;;;;;5093135;28;20012;-67
2021/11/12 10:45:15;;;;;;;;;;;17.70;99.90;;;;;;5093049;28;19920;-71
2021/11/12 10:48:08;;;;;;;;;;;17.70;99.90;;;;;;5092122;28;20011;-68
2021/11/12 10:50:40;;;;;;;;;;;17.70;99.90;;;;;;5090316;28;19912;-67
2021/11/12 10:53:16;;;;;;;;;;;17.70;99.90;;;;;;5093332;28;19908;-69
2021/11/12 10:55:45;;;;;;;;;;;17.60;99.90;;;;;;5093525;28;19966;-70
2021/11/12 10:58:13;;;;;;;;;;;17.60;99.90;;;;;;5091641;28;19989;-66
2021/11/12 11:00:50;;;;;;;;;;;17.60;99.90;;;;;;5093248;28;19961;-66
2021/11/12 11:03:21;;;;;;;;;;;17.70;99.90;;;;;;5092840;28;19912;-67
2021/11/12 11:05:55;;;;;;;;;;;17.70;99.90;;;;;;5092607;28;20019;-68
2021/11/12 11:08:26;;;;;;;;;;;17.80;99.90;;;;;;5092834;28;19912;-69
2021/11/12 11:11:13;;;;;;;;;;;17.90;99.90;;;;;;5092818;28;19960;-66
2021/11/12 11:13:42;;;;;;;;;;;17.90;99.90;;;;;;5091071;28;19965;-69
2021/11/12 11:16:17;;;;;;;;;;;17.90;99.90;;;;;;5092138;28;19954;-67
2021/11/12 11:18:44;;;;;;;;;;;17.90;99.90;;;;;;5092497;28;19912;-76
2021/11/12 11:23:53;;;;;;;;;;;17.90;99.90;;;;;;5092189;28;19919;-72
2021/11/12 11:26:21;;;;;;;;;;;18.00;99.90;;;;;;5092385;28;19908;-73
2021/11/12 11:28:49;;;;;;;;;;;18.20;99.90;;;;;;5091887;28;19931;-75
2021/11/12 11:31:17;;;;;;;;;;;18.30;99.90;;;;;;5092296;28;19919;-75
2021/11/12 11:33:45;;;;;;;;;;;18.40;99.90;;;;;;5092037;28;20008;-75
2021/11/12 11:36:13;;;;;;;;;;;18.40;99.90;;;;;;5092301;28;19908;-76
2021/11/12 11:38:44;;;;;;;;;;;18.40;99.90;;;;;;5092004;28;19912;-76
2021/11/12 11:41:12;;;;;;;;;;;18.40;99.90;;;;;;5090469;28;19924;-76
2021/11/12 11:43:39;;;;;;;;;;;18.50;99.90;;;;;;5092173;28;19916;-71
2021/11/12 11:46:08;;;;;;;;;;;18.40;99.90;;;;;;5091945;28;20011;-76
2021/11/12 11:48:36;;;;;;;;;;;18.50;99.90;;;;;;5091786;28;19961;-68
2021/11/12 11:51:03;;;;;;;;;;;18.40;99.90;;;;;;5092288;28;19919;-75
2021/11/12 11:53:40;;;;;;;;;;;18.40;99.90;;;;;;5091743;28;19908;-76
2021/11/12 11:56:15;;;;;;;;;;;18.50;99.90;;;;;;5091625;28;19912;-75
2021/11/12 11:58:46;;;;;;;;;;;18.50;99.90;;;;;;5091682;28;19912;-74
2021/11/12 12:01:18;;;;;;;;;;;18.50;99.90;;;;;;5091802;28;19919;-76
2021/11/12 12:03:46;;;;;;;;;;;18.40;99.90;;;;;;5091518;28;19912;-75
2021/11/12 12:06:19;;;;;;;;;;;18.40;99.90;;;;;;5091813;28;19953;-75
2021/11/12 12:09:03;;;;;;;;;;;18.40;99.90;;;;;;5091459;28;19915;-75
2021/11/12 12:11:30;;;;;;;;;;;18.30;99.90;;;;;;5091689;28;20313;-75
2021/11/12 12:14:15;;;;;;;;;;;18.30;99.90;;;;;;5091457;28;20349;-76
2021/11/12 12:16:42;;;;;;;;;;;18.30;99.90;;;;;;5091536;28;20332;-76
2021/11/12 12:19:26;;;;;;;;;;;18.30;99.90;;;;;;5091500;28;19958;-76
2021/11/12 12:22:10;;;;;;;;;;;18.20;99.90;;;;;;5090929;28;20370;-75
2021/11/12 12:31:12;;;;;;;;;;;18.20;99.90;;;;;;5028917;28;19913;-75
2021/11/12 13:24:52;;;;;;;;;;;17.30;99.90;;;;;;5089006;28;19964;-72
2021/11/12 13:27:18;;;;;;;;;;;17.30;99.90;;;;;;5090470;28;19912;-69
2021/11/12 13:29:45;;;;;;;;;;;17.30;99.90;;;;;;5090577;28;20357;-74
2021/11/12 13:32:12;;;;;;;;;;;17.30;99.90;;;;;;5090575;28;20342;-76
2021/11/12 13:34:46;;;;;;;;;;;17.30;99.90;;;;;;5090542;28;19912;-74
2021/11/12 13:37:20;;;;;;;;;;;17.30;99.90;;;;;;5090666;28;19919;-73
2021/11/12 13:40:07;;;;;;;;;;;17.30;99.90;;;;;;5089941;28;20289;-73
2021/11/12 13:42:44;;;;;;;;;;;17.20;99.90;;;;;;5090236;28;19968;-74
2021/11/12 13:45:19;;;;;;;;;;;17.30;99.90;;;;;;5088946;28;19920;-69
2021/11/12 13:47:46;;;;;;;;;;;17.30;99.90;;;;;;5090151;28;19993;-71
2021/11/12 13:50:14;;;;;;;;;;;17.20;99.90;;;;;;5090172;28;19912;-74
2021/11/12 13:52:50;;;;;;;;;;;17.20;99.90;;;;;;5089834;28;19988;-75
2021/11/12 13:55:16;;;;;;;;;;;17.20;99.90;;;;;;5090653;28;19912;-72
2021/11/12 13:57:56;;;;;;;;;;;17.10;99.90;;;;;;5090136;28;19918;-74
2021/11/12 14:00:30;;;;;;;;;;;17.20;99.90;;;;;;5090482;28;19957;-66
2021/11/12 14:02:59;;;;;;;;;;;17.10;99.90;;;;;;5091536;28;20014;-74
2021/11/12 14:05:31;;;;;;;;;;;17.10;99.90;;;;;;5093848;28;20007;-73
2021/11/12 14:08:09;;;;;;;;;;;17.10;99.90;;;;;;5109910;28;20503;-74
2021/11/12 14:10:40;;;;;;;;;;;17.10;99.90;;;;;;5093993;28;19947;-75
2021/11/12 14:13:08;;;;;;;;;;;17.10;99.90;;;;;;5092270;28;19977;-75
2021/11/12 14:15:48;;;;;;;;;;;17.10;99.90;;;;;;5093898;28;19912;-73
2021/11/12 14:20:55;;;;;;;;;;;17.00;99.90;;;;;;5093847;28;19912;-74
2021/11/12 14:23:24;;;;;;;;;;;17.00;99.90;;;;;;5093847;28;19912;-69
2021/11/12 14:31:17;;;;;;;;;;;16.90;99.90;;;;;;5093317;28;19908;-71
2021/11/12 14:34:00;;;;;;;;;;;16.90;99.90;;;;;;5093619;28;20385;-69
2021/11/12 14:39:07;;;;;;;;;;;16.80;99.90;;;;;;5093694;28;19945;-72
2021/11/12 14:42:03;;;;;;;;;;;16.80;99.90;;;;;;5093226;28;19973;-73
2021/11/12 14:44:47;;;;;;;;;;;16.80;99.90;;;;;;5093255;28;19924;-75
2021/11/12 14:47:28;;;;;;;;;;;16.80;99.90;;;;;;5108956;28;19985;-71
2021/11/12 14:50:10;;;;;;;;;;;16.80;99.90;;;;;;5093009;28;19908;-74
2021/11/12 14:52:36;;;;;;;;;;;16.80;99.90;;;;;;5091671;28;19915;-73
2021/11/12 14:55:10;;;;;;;;;;;16.80;99.90;;;;;;5093185;28;20279;-74
2021/11/12 14:57:40;;;;;;;;;;;16.70;99.90;;;;;;5091600;28;20313;-67
2021/11/12 15:00:13;;;;;;;;;;;16.70;99.90;;;;;;5093198;28;20273;-69
2021/11/12 15:02:41;;;;;;;;;;;16.80;99.90;;;;;;5095725;28;19908;-66
2021/11/12 15:05:09;;;;;;;;;;;16.80;99.90;;;;;;5093743;28;20019;-67
2021/11/12 15:07:53;;;;;;;;;;;16.70;99.90;;;;;;5093878;28;19908;-73
2021/11/12 15:10:27;;;;;;;;;;;16.70;99.90;;;;;;5091614;28;19943;-67
2021/11/12 15:12:53;;;;;;;;;;;16.70;99.90;;;;;;5094051;28;19912;-67
2021/11/12 15:15:21;;;;;;;;;;;16.70;99.90;;;;;;5092857;28;20368;-68
2021/11/12 15:17:50;;;;;;;;;;;16.60;99.90;;;;;;5092868;28;19912;-66
2021/11/12 15:20:18;;;;;;;;;;;16.60;99.90;;;;;;5092860;28;19915;-68
2021/11/12 15:22:58;;;;;;;;;;;16.60;99.90;;;;;;5093179;28;19914;-66
2021/11/12 15:25:38;;;;;;;;;;;16.50;99.90;;;;;;5093150;28;19961;-75
2021/11/12 15:28:28;;;;;;;;;;;16.50;99.90;;;;;;5094478;28;19908;-75
2021/11/12 15:31:05;;;;;;;;;;;16.50;99.90;;;;;;5110252;28;19912;-71
2021/11/12 15:33:32;;;;;;;;;;;16.50;99.90;;;;;;5094656;28;19961;-74
2021/11/12 15:36:03;;;;;;;;;;;16.50;99.90;;;;;;5094304;28;19908;-74
2021/11/12 15:41:15;;;;;;;;;;;16.50;99.90;;;;;;5094181;28;19999;-74
2021/11/12 15:43:58;;;;;;;;;;;16.50;99.90;;;;;;5092988;28;19908;-73
2021/11/12 15:46:32;;;;;;;;;;;16.50;99.90;;;;;;5094318;28;19922;-69
2021/11/12 15:48:58;;;;;;;;;;;16.50;99.90;;;;;;5094066;28;19908;-74
2021/11/12 15:56:56;;;;;;;;;;;16.40;99.90;;;;;;5094062;28;20286;-69
2021/11/12 16:07:06;;;;;;;;;;;16.30;99.90;;;;;;5093888;28;19960;-75
2021/11/12 16:12:12;;;;;;;;;;;16.20;99.90;;;;;;5093472;28;19952;-72
2021/11/12 16:14:49;;;;;;;;;;;16.10;99.90;;;;;;5092320;28;19947;-74
2021/11/12 16:20:01;;;;;;;;;;;16.10;99.90;;;;;;5093726;28;19959;-71
2021/11/12 16:27:40;;;;;;;;;;;16.00;99.90;;;;;;5093325;28;19916;-75
2021/11/12 16:30:07;;;;;;;;;;;15.90;99.90;;;;;;5093086;28;19919;-73
2021/11/12 16:32:45;;;;;;;;;;;15.80;99.90;;;;;;5093239;28;19966;-74
2021/11/12 16:35:15;;;;;;;;;;;15.80;99.90;;;;;;5093300;28;20018;-74
2021/11/12 16:37:44;;;;;;;;;;;15.80;99.90;;;;;;5093008;28;20136;-74
2021/11/12 16:40:17;;;;;;;;;;;15.80;99.90;;;;;;5092877;28;20006;-72
2021/11/12 16:43:21;;;;;;;;;;;15.80;99.90;;;;;;5093190;28;20358;-75
2021/11/12 16:48:39;;;;;;;;;;;15.80;99.90;;;;;;5092751;28;19908;-73
2021/11/12 16:53:36;;;;;;;;;;;15.80;99.90;;;;;;5093038;28;19908;-72
2021/11/12 16:59:14;;;;;;;;;;;15.70;99.90;;;;;;5093114;28;19915;-66
2021/11/12 17:07:00;;;;;;;;;;;15.70;99.90;;;;;;5092799;28;20003;-72
2021/11/12 17:10:05;;;;;;;;;;;15.70;99.90;;;;;;5093078;28;20025;-67
2021/11/12 17:21:06;;;;;;;;;;;15.60;99.90;;;;;;5069260;28;19908;-73
2021/11/12 17:47:59;;;;;;;;;;;15.50;99.90;;;;;;5096187;28;20003;-71
2021/11/12 17:50:45;;;;;;;;;;;15.50;99.90;;;;;;5096419;28;19908;-70
2021/11/12 18:04:10;;;;;;;;;;;15.40;99.90;;;;;;5095888;28;19958;-74
2021/11/12 18:06:53;;;;;;;;;;;15.40;99.90;;;;;;5096270;28;20373;-74
2021/11/12 18:12:32;;;;;;;;;;;15.40;99.90;;;;;;5095822;28;19915;-69
2021/11/12 18:21:09;;;;;;;;;;;15.50;99.90;;;;;;5095573;28;19912;-70
2021/11/12 21:46:44;;;;;;;;;;;17.30;98.70;;;;;;5092372;28;20251;-76
2021/11/12 21:49:10;;;;;;;;;;;17.20;97.80;;;;;;5092655;28;19962;-67
2021/11/12 21:51:41;;;;;;;;;;;17.10;98.60;;;;;;5092201;28;19920;-66
2021/11/12 21:54:08;;;;;;;;;;;17.10;98.70;;;;;;5092028;28;19914;-66
2021/11/12 21:56:35;;;;;;;;;;;17.20;98.50;;;;;;5092189;28;20358;-66
2021/11/12 21:59:03;;;;;;;;;;;17.20;98.30;;;;;;5092067;28;19915;-66
2021/11/12 22:01:30;;;;;;;;;;;17.20;98.50;;;;;;5092008;28;19908;-67
2021/11/12 22:03:57;;;;;;;;;;;17.30;99.60;;;;;;5091945;28;20385;-66
2021/11/12 22:06:24;;;;;;;;;;;17.50;99.10;;;;;;5092423;28;20286;-65
2021/11/12 22:08:51;;;;;;;;;;;17.60;99.30;;;;;;5092045;28;19908;-67
2021/11/12 22:11:17;;;;;;;;;;;17.70;98.60;;;;;;5092060;28;20282;-66
2021/11/12 22:13:44;;;;;;;;;;;17.80;98.70;;;;;;5092065;28;20312;-68
2021/11/12 22:16:13;;;;;;;;;;;17.90;97.50;;;;;;5091750;28;20029;-66
2021/11/12 22:18:40;;;;;;;;;;;17.90;97.50;;;;;;5092096;28;19916;-65
2021/11/12 22:21:07;;;;;;;;;;;17.90;98.30;;;;;;5091928;28;19908;-66
2021/11/12 22:23:34;;;;;;;;;;;17.90;97.40;;;;;;5092460;28;19908;-66
2021/11/12 22:26:01;;;;;;;;;;;17.90;97.30;;;;;;5094256;28;19923;-66
2021/11/12 22:28:28;;;;;;;;;;;18.00;97.30;;;;;;5095833;28;19912;-65
2021/11/12 22:30:54;;;;;;;;;;;18.00;98.30;;;;;;5095761;28;19954;-65
2021/11/12 22:33:21;;;;;;;;;;;18.20;98.20;;;;;;5095541;28;19914;-71
2021/11/12 22:35:48;;;;;;;;;;;18.20;98.20;;;;;;5095226;28;20007;-66
2021/11/12 22:38:15;;;;;;;;;;;18.30;97.50;;;;;;5095301;28;19908;-67
2021/11/12 22:40:43;;;;;;;;;;;18.30;97.00;;;;;;5095336;28;20362;-66
2021/11/12 22:43:10;;;;;;;;;;;18.40;96.90;;;;;;5095441;28;19915;-67
2021/11/12 22:45:37;;;;;;;;;;;18.50;97.20;;;;;;5095189;28;19916;-66
2021/11/12 22:48:04;;;;;;;;;;;18.40;96.30;;;;;;5094999;28;20559;-67
2021/11/12 22:50:30;;;;;;;;;;;18.40;96.50;;;;;;5095350;28;19915;-66
2021/11/12 22:52:58;;;;;;;;;;;18.40;96.60;;;;;;5095266;28;19916;-68
2021/11/12 22:55:24;;;;;;;;;;;18.50;97.20;;;;;;5095007;28;19908;-66
2021/11/12 22:57:51;;;;;;;;;;;18.60;97.30;;;;;;5094888;28;19931;-66
2021/11/12 23:00:35;;;;;;;;;;;18.70;97.30;;;;;;5094734;28;19993;-66
2021/11/12 23:03:02;;;;;;;;;;;18.70;96.30;;;;;;5095012;28;20380;-66
2021/11/12 23:05:29;;;;;;;;;;;18.80;97.00;;;;;;5094769;28;19926;-65
2021/11/12 23:07:56;;;;;;;;;;;18.80;96.70;;;;;;5094703;28;19962;-67
2021/11/12 23:10:22;;;;;;;;;;;18.90;96.80;;;;;;5093559;28;19957;-66
2021/11/12 23:12:49;;;;;;;;;;;19.00;96.60;;;;;;5094885;28;19908;-67
2021/11/12 23:15:16;;;;;;;;;;;19.00;96.50;;;;;;5094588;28;20358;-66
2021/11/12 23:17:43;;;;;;;;;;;19.00;96.60;;;;;;5094499;28;19912;-66
2021/11/12 23:20:10;;;;;;;;;;;19.10;95.90;;;;;;5094353;28;19943;-66
2021/11/12 23:22:39;;;;;;;;;;;19.00;96.00;;;;;;5094824;28;19909;-65
2021/11/12 23:25:06;;;;;;;;;;;18.80;96.10;;;;;;5094489;28;19916;-65
2021/11/12 23:27:33;;;;;;;;;;;18.60;96.40;;;;;;5093928;28;19955;-65
2021/11/12 23:30:00;;;;;;;;;;;18.50;96.50;;;;;;5093944;28;19912;-67
2021/11/12 23:32:26;;;;;;;;;;;18.50;96.70;;;;;;5094392;28;20003;-68
2021/11/12 23:34:53;;;;;;;;;;;18.60;95.50;;;;;;5094008;28;19908;-66
2021/11/12 23:37:20;;;;;;;;;;;18.70;96.40;;;;;;5094205;28;19954;-65
2021/11/12 23:39:47;;;;;;;;;;;18.80;95.90;;;;;;5093854;28;19908;-66
2021/11/12 23:42:13;;;;;;;;;;;18.90;96.00;;;;;;5094216;28;19938;-67
2021/11/12 23:44:40;;;;;;;;;;;18.90;95.70;;;;;;5093914;28;20354;-68
2021/11/12 23:47:08;;;;;;;;;;;19.20;95.70;;;;;;5094091;28;19915;-65
2021/11/12 23:49:35;;;;;;;;;;;19.00;94.80;;;;;;5092734;28;19912;-66
2021/11/12 23:52:02;;;;;;;;;;;18.90;95.70;;;;;;5093678;28;19997;-66
2021/11/12 23:54:29;;;;;;;;;;;19.00;95.10;;;;;;5093759;28;20015;-68